Time;durP1;ratioP1;P1;durP2;ratioP2;P2;SDS_P1;SDS_P2;PMS_P1;PMS_P2;Temp;Humidity;BMP_temperature;BMP_pressure;BME280_temperature;BME280_humidity;BME280_pressure;Samples;Min_cycle;Max_cycle;Signal;HPM_P1;HPM_P2
2023/06/29 00:00:40;;;;;;;6.63;3.00;;;22.90;93.70;;;;;;5017430;28;20571;-78
2023/06/29 00:03:06;;;;;;;4.17;3.20;;;22.90;93.70;;;;;;5016980;28;20212;-79
2023/06/29 00:05:32;;;;;;;2.77;2.37;;;22.80;93.90;;;;;;5034531;28;20616;-79
2023/06/29 00:07:59;;;;;;;6.33;2.97;;;22.80;94.60;;;;;;5056108;28;20628;-79
2023/06/29 00:10:25;;;;;;;4.30;2.43;;;22.80;94.00;;;;;;5034676;28;20582;-79
2023/06/29 00:12:52;;;;;;;5.03;3.10;;;22.80;94.00;;;;;;5033948;28;20623;-79
2023/06/29 00:15:18;;;;;;;6.20;3.47;;;22.90;94.20;;;;;;5034128;28;20609;-79
2023/06/29 00:17:47;;;;;;;4.70;3.00;;;22.80;94.30;;;;;;5033728;28;21186;-79
2023/06/29 00:20:14;;;;;;;3.70;2.13;;;22.80;94.40;;;;;;5051479;28;20587;-79
2023/06/29 00:22:47;;;;;;;5.73;2.67;;;22.80;94.50;;;;;;5016733;28;20611;-79
2023/06/29 00:25:13;;;;;;;6.97;2.40;;;22.90;94.60;;;;;;5016911;28;20586;-79
2023/06/29 00:27:39;;;;;;;4.50;2.40;;;22.90;94.60;;;;;;5033080;28;20982;-79
2023/06/29 00:30:06;;;;;;;4.30;2.50;;;22.90;94.70;;;;;;5051558;28;20575;-79
2023/06/29 00:32:32;;;;;;;5.17;2.63;;;22.90;94.70;;;;;;5032650;28;20199;-79
2023/06/29 00:34:57;;;;;;;3.87;2.73;;;22.90;94.80;;;;;;5033551;28;21419;-79
2023/06/29 00:37:23;;;;;;;4.40;3.03;;;22.90;94.90;;;;;;5016844;28;20263;-79
2023/06/29 00:39:49;;;;;;;4.27;2.37;;;22.90;94.90;;;;;;5016997;28;20173;-79
2023/06/29 00:42:14;;;;;;;5.50;2.90;;;22.90;95.00;;;;;;5050732;28;20188;-78
2023/06/29 00:44:40;;;;;;;5.07;2.67;;;22.80;95.00;;;;;;5018182;28;20165;-79
2023/06/29 00:47:06;;;;;;;3.43;2.37;;;22.90;95.10;;;;;;5017092;28;20577;-79
2023/06/29 00:49:32;;;;;;;6.40;2.60;;;22.90;95.20;;;;;;5033231;28;20213;-79
2023/06/29 00:51:57;;;;;;;3.87;2.07;;;22.90;95.20;;;;;;5032068;28;20616;-79
2023/06/29 00:54:25;;;;;;;4.40;2.80;;;22.90;95.40;;;;;;5016232;28;20180;-79
2023/06/29 00:56:52;;;;;;;7.47;2.87;;;22.90;95.70;;;;;;5016039;28;20594;-79
2023/06/29 00:59:18;;;;;;;2.93;2.33;;;22.80;95.70;;;;;;5016501;28;20587;-79
2023/06/29 01:01:45;;;;;;;3.73;1.90;;;22.80;95.80;;;;;;5015626;28;20614;-79
2023/06/29 01:04:17;;;;;;;4.67;2.70;;;22.80;95.80;;;;;;5015976;28;20219;-78
2023/06/29 01:06:56;;;;;;;6.47;2.83;;;22.80;96.10;;;;;;5016705;28;20761;-79
2023/06/29 01:09:24;;;;;;;5.63;3.17;;;22.70;96.40;;;;;;5050643;28;20637;-79
2023/06/29 01:11:51;;;;;;;4.60;3.20;;;22.70;96.30;;;;;;5015419;28;21158;-79
2023/06/29 01:14:19;;;;;;;6.63;2.70;;;22.60;96.60;;;;;;5026576;28;20636;-79
2023/06/29 01:17:04;;;;;;;5.03;2.67;;;22.60;96.60;;;;;;5035738;28;20621;-79
2023/06/29 01:19:31;;;;;;;5.63;2.37;;;22.60;96.90;;;;;;5021033;28;20629;-79
2023/06/29 01:22:02;;;;;;;6.40;3.40;;;22.60;97.10;;;;;;5031611;28;21012;-79
2023/06/29 01:24:40;;;;;;;4.07;2.83;;;22.50;97.70;;;;;;5015739;28;20588;-79
2023/06/29 01:27:12;;;;;;;4.30;3.10;;;22.50;97.70;;;;;;5032381;28;20579;-79
2023/06/29 01:29:38;;;;;;;4.23;2.60;;;22.50;97.60;;;;;;5000041;28;20718;-79
2023/06/29 01:32:07;;;;;;;5.37;2.93;;;22.50;98.10;;;;;;5015430;28;21199;-79
2023/06/29 01:34:35;;;;;;;3.93;2.10;;;22.40;98.10;;;;;;5032521;28;20630;-79
2023/06/29 01:37:11;;;;;;;5.37;2.57;;;22.40;98.20;;;;;;5032762;28;20587;-79
2023/06/29 01:39:55;;;;;;;5.73;3.00;;;22.40;98.30;;;;;;5032390;28;21166;-79
2023/06/29 01:42:23;;;;;;;7.70;2.90;;;22.40;98.60;;;;;;5049233;28;20715;-79
2023/06/29 01:44:49;;;;;;;4.20;3.17;;;22.30;98.40;;;;;;4999248;28;20580;-79
2023/06/29 01:47:17;;;;;;;7.07;4.00;;;22.30;98.50;;;;;;5016343;28;20595;-79
2023/06/29 01:49:43;;;;;;;4.60;2.60;;;22.30;98.60;;;;;;5032290;28;20878;-79
2023/06/29 01:52:09;;;;;;;4.20;2.43;;;22.30;98.80;;;;;;5015433;28;20603;-79
2023/06/29 01:54:35;;;;;;;5.37;2.80;;;22.20;98.80;;;;;;5015950;28;20675;-79
2023/06/29 01:57:04;;;;;;;4.53;2.57;;;22.20;99.00;;;;;;5037436;28;20599;-79
2023/06/29 01:59:30;;;;;;;3.20;2.70;;;22.20;99.60;;;;;;5032052;28;20189;-79
2023/06/29 02:01:56;;;;;;;5.13;2.80;;;22.20;99.30;;;;;;5014519;28;20615;-79
2023/06/29 02:04:22;;;;;;;3.77;2.77;;;22.20;99.50;;;;;;5032255;28;20239;-79
2023/06/29 02:06:47;;;;;;;3.90;2.90;;;22.20;99.80;;;;;;5032789;28;20549;-79
2023/06/29 02:09:13;;;;;;;3.83;2.80;;;22.10;99.90;;;;;;5032077;28;20212;-79
2023/06/29 02:11:39;;;;;;;3.67;3.00;;;22.20;99.90;;;;;;5014317;28;20191;-79
2023/06/29 02:14:04;;;;;;;3.30;2.80;;;22.10;99.90;;;;;;5031870;28;20665;-79
2023/06/29 02:16:30;;;;;;;4.53;2.63;;;22.10;99.90;;;;;;5015177;28;20548;-79
2023/06/29 02:18:56;;;;;;;3.87;2.60;;;22.20;99.90;;;;;;5015821;28;20576;-78
2023/06/29 02:21:22;;;;;;;5.77;3.00;;;22.20;99.90;;;;;;5015052;28;20184;-79
2023/06/29 02:23:47;;;;;;;5.33;3.80;;;22.20;99.90;;;;;;5012820;28;20200;-79
2023/06/29 02:26:13;;;;;;;3.20;2.60;;;22.20;99.90;;;;;;5049943;28;20227;-79
2023/06/29 02:28:39;;;;;;;3.83;2.77;;;22.10;99.90;;;;;;5031230;28;20196;-79
2023/06/29 02:31:04;;;;;;;3.83;2.37;;;22.10;99.90;;;;;;5014786;28;20243;-79
2023/06/29 02:33:30;;;;;;;3.43;2.13;;;22.10;99.90;;;;;;5018471;28;20201;-78
2023/06/29 02:35:56;;;;;;;4.10;2.60;;;22.00;99.90;;;;;;5048468;28;20567;-79
2023/06/29 02:38:22;;;;;;;4.90;2.83;;;22.00;99.90;;;;;;5015292;28;20185;-78
2023/06/29 02:40:48;;;;;;;4.00;2.37;;;22.00;99.90;;;;;;5014820;28;20188;-79
2023/06/29 02:43:15;;;;;;;2.93;1.90;;;22.00;99.90;;;;;;5011460;28;21497;-79
2023/06/29 02:45:41;;;;;;;2.93;2.07;;;21.90;99.90;;;;;;4995346;28;20172;-79
2023/06/29 02:48:08;;;;;;;4.77;2.70;;;22.00;99.90;;;;;;5029410;28;21163;-79
2023/06/29 02:50:33;;;;;;;3.70;2.67;;;22.00;99.90;;;;;;4978166;28;20581;-79
2023/06/29 02:53:00;;;;;;;4.10;2.53;;;21.90;99.90;;;;;;5011046;28;20193;-75
2023/06/29 02:55:29;;;;;;;5.10;2.90;;;21.90;99.90;;;;;;4979072;28;20600;-76
2023/06/29 02:57:55;;;;;;;4.17;2.30;;;22.00;99.90;;;;;;5011901;28;20643;-75
2023/06/29 03:00:21;;;;;;;4.90;2.50;;;22.00;99.90;;;;;;5011862;28;20600;-75
2023/06/29 03:02:46;;;;;;;3.40;3.10;;;22.00;99.90;;;;;;5010725;28;20624;-76
2023/06/29 03:05:12;;;;;;;5.80;3.23;;;22.00;99.90;;;;;;5011812;28;20568;-77
2023/06/29 03:07:38;;;;;;;4.03;2.73;;;22.00;99.90;;;;;;5011439;28;20200;-77
2023/06/29 03:10:04;;;;;;;5.00;2.33;;;22.00;99.90;;;;;;5013567;28;20231;-77
2023/06/29 03:12:30;;;;;;;4.53;2.37;;;22.00;99.90;;;;;;5010666;28;20201;-77
2023/06/29 03:14:56;;;;;;;4.03;3.40;;;21.90;99.90;;;;;;5028047;28;20584;-77
2023/06/29 03:17:24;;;;;;;4.77;2.63;;;22.00;99.90;;;;;;5020298;28;20173;-77
2023/06/29 03:19:50;;;;;;;3.73;2.67;;;22.00;99.90;;;;;;5052980;28;20173;-76
2023/06/29 03:22:15;;;;;;;4.50;2.97;;;22.00;99.90;;;;;;5017645;28;20606;-76
2023/06/29 03:24:41;;;;;;;4.47;3.07;;;22.00;99.90;;;;;;5052303;28;20363;-77
2023/06/29 03:27:07;;;;;;;3.70;2.53;;;22.00;99.90;;;;;;5052758;28;20176;-76
2023/06/29 03:29:32;;;;;;;3.53;2.67;;;22.00;99.90;;;;;;5017539;28;20619;-76
2023/06/29 03:31:59;;;;;;;4.17;2.43;;;22.00;99.90;;;;;;5034119;28;20538;-77
2023/06/29 03:34:26;;;;;;;3.33;2.70;;;22.00;99.90;;;;;;5051990;28;20173;-77
2023/06/29 03:36:52;;;;;;;4.70;3.27;;;22.00;99.90;;;;;;5034520;28;20591;-77
2023/06/29 03:39:18;;;;;;;3.80;2.60;;;22.00;99.90;;;;;;5034729;28;20602;-77
2023/06/29 03:41:43;;;;;;;3.00;2.50;;;22.00;99.90;;;;;;5051671;28;20187;-77
2023/06/29 03:44:09;;;;;;;5.03;2.93;;;22.00;99.90;;;;;;5037303;28;20607;-77
2023/06/29 03:46:35;;;;;;;3.13;2.20;;;22.00;99.90;;;;;;5039039;28;20173;-77
2023/06/29 03:49:01;;;;;;;3.00;2.33;;;22.00;99.90;;;;;;5037140;28;21257;-77
2023/06/29 03:51:26;;;;;;;4.80;2.73;;;22.00;99.90;;;;;;5033372;28;20593;-77
2023/06/29 03:53:52;;;;;;;5.40;2.60;;;22.10;99.90;;;;;;5040698;28;20193;-76
2023/06/29 03:56:18;;;;;;;3.53;2.80;;;22.10;99.90;;;;;;5023094;28;20173;-76
2023/06/29 03:58:43;;;;;;;8.33;4.30;;;22.10;99.90;;;;;;5033864;28;20181;-75
2023/06/29 04:01:09;;;;;;;4.37;3.03;;;22.00;99.90;;;;;;5033405;28;20224;-76
2023/06/29 04:03:35;;;;;;;4.73;3.33;;;22.00;99.90;;;;;;5033143;28;20197;-75
2023/06/29 04:06:00;;;;;;;4.27;3.77;;;22.00;99.90;;;;;;5034035;28;20181;-76
2023/06/29 04:08:27;;;;;;;4.37;3.33;;;22.00;99.90;;;;;;5016929;28;20303;-75
2023/06/29 04:10:53;;;;;;;5.07;3.50;;;22.00;99.90;;;;;;5016783;28;20595;-75
2023/06/29 04:13:19;;;;;;;5.70;3.70;;;22.00;99.90;;;;;;5016513;28;20611;-75
2023/06/29 04:15:45;;;;;;;5.20;3.40;;;22.00;99.90;;;;;;5051715;28;20919;-75
2023/06/29 04:18:11;;;;;;;4.90;3.60;;;22.00;99.90;;;;;;5050800;28;20591;-75
2023/06/29 04:20:37;;;;;;;4.30;3.30;;;22.00;99.90;;;;;;5051294;28;21038;-75
2023/06/29 04:23:02;;;;;;;7.17;3.47;;;22.00;99.90;;;;;;5051273;28;20205;-75
2023/06/29 04:25:28;;;;;;;5.53;3.40;;;22.10;99.90;;;;;;5051191;28;20584;-75
2023/06/29 04:27:54;;;;;;;7.83;4.27;;;22.10;99.90;;;;;;5032915;28;20200;-76
2023/06/29 04:30:20;;;;;;;4.67;3.57;;;22.10;99.90;;;;;;5016436;28;20176;-75
2023/06/29 04:32:46;;;;;;;5.63;3.20;;;22.20;99.90;;;;;;5049894;28;20542;-76
2023/06/29 04:35:13;;;;;;;6.23;4.30;;;22.20;99.90;;;;;;5051168;28;20165;-76
2023/06/29 04:37:42;;;;;;;4.60;3.33;;;22.20;99.90;;;;;;5051009;28;20570;-75
2023/06/29 04:40:09;;;;;;;4.80;3.50;;;22.30;99.90;;;;;;5033443;28;20587;-75
2023/06/29 04:42:45;;;;;;;5.60;3.80;;;22.30;99.90;;;;;;5016435;28;20954;-75
2023/06/29 04:45:19;;;;;;;6.93;4.33;;;22.40;99.90;;;;;;5032843;28;20611;-75
2023/06/29 04:47:52;;;;;;;5.80;4.07;;;22.40;99.90;;;;;;5016495;28;20733;-76
2023/06/29 04:50:25;;;;;;;5.07;4.13;;;22.40;99.90;;;;;;5032983;28;20645;-75
2023/06/29 04:53:12;;;;;;;8.77;4.60;;;22.50;99.90;;;;;;5015192;28;20647;-75
2023/06/29 04:55:38;;;;;;;5.40;4.23;;;22.50;99.90;;;;;;5050683;28;20572;-75
2023/06/29 04:58:04;;;;;;;5.27;4.27;;;22.60;99.90;;;;;;5033177;28;20946;-79
2023/06/29 05:00:33;;;;;;;7.23;4.87;;;22.70;99.90;;;;;;5036817;28;20599;-78
2023/06/29 05:02:59;;;;;;;4.23;3.70;;;22.80;99.90;;;;;;5015714;28;20634;-77
2023/06/29 05:05:25;;;;;;;7.47;5.03;;;22.90;99.90;;;;;;5032569;28;20600;-78
2023/06/29 05:07:51;;;;;;;10.23;4.90;;;23.00;99.90;;;;;;5050492;28;20626;-77
2023/06/29 05:10:17;;;;;;;7.90;4.60;;;23.00;99.90;;;;;;5050831;28;20169;-77
2023/06/29 05:12:42;;;;;;;7.40;5.10;;;23.10;99.90;;;;;;5031977;28;20255;-77
2023/06/29 05:15:09;;;;;;;5.23;4.23;;;23.10;99.90;;;;;;5050399;28;20247;-76
2023/06/29 05:17:34;;;;;;;7.00;4.03;;;23.10;99.90;;;;;;5032744;28;20176;-76
2023/06/29 05:20:00;;;;;;;7.20;3.67;;;23.20;99.90;;;;;;5032343;28;20599;-76
2023/06/29 05:22:25;;;;;;;3.67;3.10;;;23.20;99.90;;;;;;5031913;28;20549;-77
2023/06/29 05:24:51;;;;;;;6.17;4.67;;;23.20;99.90;;;;;;5032159;28;20825;-76
2023/06/29 05:27:17;;;;;;;7.70;4.00;;;23.30;99.90;;;;;;5016295;28;20169;-76
2023/06/29 05:29:42;;;;;;;5.40;3.80;;;23.30;99.90;;;;;;5015565;28;20204;-77
2023/06/29 05:32:08;;;;;;;7.90;3.83;;;23.30;99.90;;;;;;5031722;28;20197;-76
2023/06/29 05:34:35;;;;;;;4.90;3.73;;;23.30;99.90;;;;;;5032136;28;20238;-76
2023/06/29 05:37:01;;;;;;;4.37;3.13;;;23.30;99.90;;;;;;5017386;28;20173;-78
2023/06/29 05:39:27;;;;;;;5.23;3.57;;;23.50;99.90;;;;;;5032013;28;21135;-78
2023/06/29 05:41:53;;;;;;;4.40;3.43;;;23.50;99.90;;;;;;5030293;28;20645;-78
2023/06/29 05:44:18;;;;;;;4.90;3.80;;;23.60;99.90;;;;;;5049489;28;20211;-78
2023/06/29 05:46:44;;;;;;;6.77;3.97;;;23.70;99.90;;;;;;5015867;28;20226;-78
2023/06/29 05:49:10;;;;;;;7.40;3.90;;;23.80;99.90;;;;;;5032247;28;20212;-77
2023/06/29 05:51:37;;;;;;;3.93;2.70;;;23.90;99.90;;;;;;5049127;28;20173;-77
2023/06/29 05:54:06;;;;;;;4.70;3.80;;;23.90;99.90;;;;;;5050231;28;20592;-78
2023/06/29 05:56:32;;;;;;;4.93;3.73;;;23.90;99.90;;;;;;5050135;28;21222;-78
2023/06/29 05:58:58;;;;;;;4.43;4.00;;;23.90;99.90;;;;;;5015179;28;20618;-81
2023/06/29 06:01:23;;;;;;;7.53;3.93;;;23.80;99.90;;;;;;5048893;28;20192;-77
2023/06/29 06:03:49;;;;;;;5.70;3.30;;;23.80;99.90;;;;;;5030985;28;20199;-77
2023/06/29 06:06:15;;;;;;;7.40;3.67;;;23.80;99.90;;;;;;5030755;28;20510;-77
2023/06/29 06:08:41;;;;;;;7.53;3.70;;;23.80;99.90;;;;;;5049790;28;20192;-77
2023/06/29 06:11:06;;;;;;;5.43;3.37;;;23.80;99.90;;;;;;5014813;28;20173;-77
2023/06/29 06:13:32;;;;;;;4.90;2.23;;;23.80;99.90;;;;;;5031612;28;20338;-77
2023/06/29 06:15:59;;;;;;;4.90;3.40;;;23.80;99.90;;;;;;5031692;28;20687;-77
2023/06/29 06:18:24;;;;;;;5.13;3.30;;;23.90;99.90;;;;;;5049100;28;20173;-77
2023/06/29 06:20:50;;;;;;;4.33;3.70;;;23.90;99.90;;;;;;5048601;28;20730;-77
2023/06/29 06:23:16;;;;;;;4.30;3.00;;;24.00;99.90;;;;;;5026823;28;20226;-77
2023/06/29 06:25:42;;;;;;;5.17;3.50;;;24.10;99.90;;;;;;5039430;28;20165;-78
2023/06/29 06:28:07;;;;;;;4.33;3.20;;;24.10;99.90;;;;;;5048235;28;20197;-78
2023/06/29 06:30:33;;;;;;;4.60;3.10;;;24.10;99.90;;;;;;5030453;28;20183;-78
2023/06/29 06:33:01;;;;;;;5.00;2.80;;;24.00;99.90;;;;;;5048681;28;20197;-77
2023/06/29 06:35:31;;;;;;;7.83;3.90;;;24.10;99.90;;;;;;5030987;28;20173;-78
2023/06/29 06:37:57;;;;;;;14.53;4.87;;;24.10;99.90;;;;;;5049176;28;21124;-77
2023/06/29 06:40:23;;;;;;;14.60;3.70;;;24.10;99.90;;;;;;5031501;28;20578;-77
2023/06/29 06:42:48;;;;;;;11.40;3.60;;;24.20;99.90;;;;;;5013912;28;20566;-77
2023/06/29 06:45:16;;;;;;;5.93;2.97;;;24.30;99.90;;;;;;5014859;28;20303;-77
2023/06/29 06:47:42;;;;;;;7.77;4.10;;;24.30;99.90;;;;;;5031648;28;20966;-77
2023/06/29 06:50:08;;;;;;;4.60;3.10;;;24.40;99.90;;;;;;5054448;28;20583;-76
2023/06/29 06:52:34;;;;;;;7.50;2.77;;;24.50;99.90;;;;;;5016080;28;20193;-78
2023/06/29 06:54:59;;;;;;;12.80;3.17;;;24.70;99.90;;;;;;5034657;28;20576;-77
2023/06/29 06:57:25;;;;;;;5.40;2.97;;;24.70;99.90;;;;;;5018554;28;20575;-78
2023/06/29 06:59:51;;;;;;;7.37;2.40;;;24.80;99.90;;;;;;5034500;28;20177;-78
2023/06/29 07:02:16;;;;;;;4.97;2.37;;;24.90;99.90;;;;;;5033340;28;20215;-78
2023/06/29 07:04:42;;;;;;;8.23;4.50;;;25.00;99.90;;;;;;5034364;28;20177;-76
2023/06/29 07:07:08;;;;;;;6.30;3.47;;;25.20;99.90;;;;;;5033278;28;20208;-76
2023/06/29 07:09:34;;;;;;;5.70;3.30;;;25.50;99.90;;;;;;5039535;28;20205;-77
2023/06/29 07:12:00;;;;;;;3.70;2.70;;;25.80;99.90;;;;;;5028321;28;20604;-77
2023/06/29 07:14:26;;;;;;;7.30;3.37;;;26.30;99.90;;;;;;5050636;28;20682;-79
2023/06/29 07:16:52;;;;;;;7.40;2.67;;;26.60;99.90;;;;;;5052256;28;21019;-78
2023/06/29 07:19:18;;;;;;;4.87;2.30;;;27.00;99.90;;;;;;5034555;28;20260;-78
2023/06/29 07:21:44;;;;;;;3.40;2.77;;;27.40;99.90;;;;;;5017273;28;20585;-78
2023/06/29 07:24:10;;;;;;;6.67;3.30;;;27.80;99.90;;;;;;5033810;28;20519;-79
2023/06/29 07:26:37;;;;;;;5.30;2.80;;;28.00;99.90;;;;;;5034339;28;20177;-79
2023/06/29 07:29:06;;;;;;;3.73;2.40;;;28.30;99.80;;;;;;5033638;28;20729;-80
2023/06/29 07:31:33;;;;;;;3.50;2.17;;;28.60;99.40;;;;;;5017396;28;20592;-78
2023/06/29 07:33:59;;;;;;;4.53;2.07;;;28.90;99.00;;;;;;5034004;28;20866;-78
2023/06/29 07:36:26;;;;;;;4.97;2.70;;;29.10;98.30;;;;;;5052567;28;20582;-78
2023/06/29 07:38:52;;;;;;;3.57;2.30;;;29.10;96.90;;;;;;5034485;28;20300;-78
2023/06/29 07:41:18;;;;;;;4.10;2.63;;;29.10;96.40;;;;;;5033048;28;20690;-78
2023/06/29 07:43:50;;;;;;;6.00;2.43;;;29.00;95.90;;;;;;5033843;28;20622;-78
2023/06/29 07:46:16;;;;;;;7.17;2.83;;;28.90;95.40;;;;;;5035110;28;20663;-77
2023/06/29 07:48:42;;;;;;;8.47;2.67;;;28.80;95.20;;;;;;5036133;28;20730;-77
2023/06/29 07:51:09;;;;;;;5.17;3.00;;;28.70;95.30;;;;;;5034117;28;20239;-77
2023/06/29 07:53:36;;;;;;;2.90;2.20;;;28.70;95.10;;;;;;5038810;28;20639;-76
2023/06/29 07:56:02;;;;;;;5.30;2.33;;;28.70;95.10;;;;;;5022714;28;20583;-78
2023/06/29 07:58:28;;;;;;;4.60;2.50;;;28.70;95.10;;;;;;5037516;28;21086;-78
2023/06/29 08:00:54;;;;;;;4.80;2.80;;;28.90;95.30;;;;;;5020292;28;20279;-76
2023/06/29 08:03:21;;;;;;;4.23;2.80;;;29.00;94.50;;;;;;5035335;28;20824;-77
2023/06/29 08:05:46;;;;;;;5.47;2.47;;;28.90;94.50;;;;;;5034628;28;20591;-77
2023/06/29 08:08:12;;;;;;;6.00;2.53;;;29.00;94.40;;;;;;5034370;28;21237;-78
2023/06/29 08:10:38;;;;;;;3.40;2.40;;;29.00;93.60;;;;;;5017179;28;20211;-78
2023/06/29 08:13:04;;;;;;;6.50;2.20;;;28.80;93.30;;;;;;5013372;28;20225;-78
2023/06/29 08:15:30;;;;;;;6.40;2.57;;;28.60;92.80;;;;;;5033597;28;20650;-78
2023/06/29 08:17:55;;;;;;;5.70;2.47;;;28.40;92.70;;;;;;5021791;28;20243;-78
2023/06/29 08:20:22;;;;;;;4.60;2.43;;;28.30;92.90;;;;;;5052485;28;20173;-78
2023/06/29 08:22:48;;;;;;;4.10;1.90;;;28.20;92.70;;;;;;5036035;28;20185;-78
2023/06/29 08:25:15;;;;;;;5.80;2.93;;;28.10;92.70;;;;;;5033489;28;20999;-78
2023/06/29 08:27:41;;;;;;;3.90;2.20;;;28.00;92.70;;;;;;5052152;28;20670;-77
2023/06/29 08:30:08;;;;;;;4.13;1.87;;;27.90;92.70;;;;;;5033375;28;20595;-78
2023/06/29 08:32:34;;;;;;;4.17;2.00;;;27.80;92.80;;;;;;5034816;28;21232;-77
2023/06/29 08:35:00;;;;;;;4.10;1.90;;;27.80;92.80;;;;;;5035084;28;20584;-78
2023/06/29 08:37:28;;;;;;;3.50;2.37;;;27.80;92.80;;;;;;5034580;28;20176;-77
2023/06/29 08:39:56;;;;;;;6.10;2.40;;;27.80;92.90;;;;;;5036178;28;21127;-78
2023/06/29 08:42:23;;;;;;;3.50;1.40;;;27.80;93.10;;;;;;5033332;28;20706;-78
2023/06/29 08:44:49;;;;;;;5.90;2.10;;;27.90;93.10;;;;;;5034420;28;20584;-78
2023/06/29 08:47:16;;;;;;;5.20;2.60;;;28.00;93.20;;;;;;5036544;28;20649;-78
2023/06/29 08:49:43;;;;;;;4.47;2.13;;;28.10;93.90;;;;;;5033326;28;20631;-78
2023/06/29 08:52:18;;;;;;;7.50;4.10;;;28.20;93.30;;;;;;5049615;28;20620;-78
2023/06/29 08:54:44;;;;;;;3.80;2.43;;;28.40;92.90;;;;;;5051453;28;20907;-79
2023/06/29 08:57:10;;;;;;;5.17;2.40;;;28.50;93.00;;;;;;5016404;28;20623;-78
2023/06/29 08:59:40;;;;;;;4.73;2.60;;;28.70;92.90;;;;;;5017027;28;20619;-79
2023/06/29 09:02:06;;;;;;;7.30;2.93;;;28.90;92.80;;;;;;5050175;28;20314;-77
2023/06/29 09:04:32;;;;;;;5.10;2.30;;;29.30;92.90;;;;;;5033108;28;20608;-77
2023/06/29 09:06:58;;;;;;;4.03;2.53;;;29.60;93.00;;;;;;5031907;28;20581;-77
2023/06/29 09:09:24;;;;;;;4.00;2.53;;;30.10;93.10;;;;;;5048142;28;20847;-77
2023/06/29 09:11:51;;;;;;;5.10;2.80;;;30.60;92.80;;;;;;5030288;28;20177;-77
2023/06/29 09:14:17;;;;;;;5.47;2.90;;;31.10;91.90;;;;;;5012463;28;20592;-78
2023/06/29 09:16:53;;;;;;;4.70;3.60;;;31.50;91.30;;;;;;5031637;28;20925;-78
2023/06/29 09:19:20;;;;;;;4.07;3.37;;;31.80;89.10;;;;;;5031956;28;20177;-78
2023/06/29 09:21:47;;;;;;;4.60;2.90;;;32.10;88.80;;;;;;5049538;28;20585;-77
2023/06/29 09:24:14;;;;;;;4.20;2.80;;;32.40;86.50;;;;;;5016231;28;20589;-78
2023/06/29 09:26:40;;;;;;;4.83;2.50;;;32.60;84.90;;;;;;5016870;28;20668;-77
2023/06/29 09:29:06;;;;;;;4.93;2.93;;;32.60;83.30;;;;;;5050720;28;20622;-78
2023/06/29 09:31:35;;;;;;;3.43;2.60;;;32.70;82.50;;;;;;5031903;28;21025;-78
2023/06/29 09:34:21;;;;;;;5.47;3.13;;;32.80;81.60;;;;;;5050017;28;20611;-77
2023/06/29 09:36:48;;;;;;;4.70;3.23;;;33.00;80.60;;;;;;5032213;28;20570;-77
2023/06/29 09:39:15;;;;;;;4.30;2.60;;;33.30;80.30;;;;;;5050918;28;20664;-76
2023/06/29 09:41:56;;;;;;;4.03;2.90;;;33.60;80.70;;;;;;5032257;28;20712;-78
2023/06/29 09:44:24;;;;;;;3.43;2.40;;;34.00;79.50;;;;;;5053173;28;20567;-79
2023/06/29 09:46:53;;;;;;;6.20;3.10;;;34.50;77.80;;;;;;5034141;28;20590;-79
2023/06/29 09:49:19;;;;;;;6.43;3.50;;;34.50;75.60;;;;;;5032748;28;20720;-78
2023/06/29 09:51:48;;;;;;;4.40;2.90;;;34.60;72.40;;;;;;5031952;28;20594;-76
2023/06/29 09:54:18;;;;;;;4.50;2.93;;;34.80;72.70;;;;;;5016016;28;20599;-78
2023/06/29 09:56:45;;;;;;;5.40;3.03;;;35.10;72.10;;;;;;5016326;28;20579;-78
2023/06/29 09:59:11;;;;;;;4.77;2.77;;;35.60;72.10;;;;;;5031995;28;21115;-78
2023/06/29 10:01:38;;;;;;;6.03;2.73;;;36.20;71.20;;;;;;5032786;28;20614;-78
2023/06/29 10:04:04;;;;;;;4.57;2.83;;;36.60;70.00;;;;;;5032853;28;20622;-79
2023/06/29 10:06:43;;;;;;;3.80;3.17;;;37.10;69.30;;;;;;5054012;28;20709;-79
2023/06/29 10:09:12;;;;;;;7.10;3.27;;;37.50;67.10;;;;;;5031181;28;21244;-79
2023/06/29 10:11:40;;;;;;;4.50;2.80;;;38.00;66.20;;;;;;5029385;28;20577;-78
2023/06/29 10:14:07;;;;;;;3.97;2.80;;;38.40;64.60;;;;;;5011701;28;20704;-79
2023/06/29 10:16:39;;;;;;;4.40;3.20;;;38.70;62.20;;;;;;5012127;28;20584;-78
2023/06/29 10:19:22;;;;;;;3.93;2.57;;;38.80;59.40;;;;;;5011922;28;20572;-77
2023/06/29 10:21:56;;;;;;;3.10;2.80;;;38.80;58.30;;;;;;5011114;28;20581;-79
2023/06/29 10:24:30;;;;;;;5.80;3.17;;;38.90;56.80;;;;;;5021449;28;20595;-78
2023/06/29 10:26:58;;;;;;;4.97;2.70;;;38.70;55.40;;;;;;5016417;28;20578;-78
2023/06/29 10:29:24;;;;;;;2.97;2.50;;;38.60;54.70;;;;;;5035762;28;20627;-78
2023/06/29 10:31:57;;;;;;;3.43;2.50;;;38.40;54.10;;;;;;5034517;28;20618;-78
2023/06/29 10:34:25;;;;;;;5.03;2.30;;;38.00;52.80;;;;;;5002345;28;20958;-78
2023/06/29 10:36:52;;;;;;;5.57;2.70;;;37.60;52.80;;;;;;5035716;28;20703;-78
2023/06/29 10:39:36;;;;;;;5.57;3.20;;;37.20;52.60;;;;;;5053527;28;20606;-77
2023/06/29 10:42:02;;;;;;;3.80;2.80;;;36.70;52.30;;;;;;5034401;28;20929;-78
2023/06/29 10:44:34;;;;;;;6.50;3.30;;;36.10;52.40;;;;;;5035256;28;20573;-78
2023/06/29 10:47:01;;;;;;;7.77;3.33;;;35.50;52.10;;;;;;5035761;28;20174;-77
2023/06/29 10:49:28;;;;;;;7.60;4.50;;;35.00;52.60;;;;;;5022335;28;20647;-77
2023/06/29 10:52:04;;;;;;;6.57;5.27;;;34.40;53.00;;;;;;5036400;28;20589;-77
2023/06/29 10:54:30;;;;;;;4.97;4.13;;;33.90;53.80;;;;;;5051569;28;20910;-77
2023/06/29 10:57:02;;;;;;;5.83;4.77;;;33.30;54.10;;;;;;5035269;28;20585;-78
2023/06/29 10:59:29;;;;;;;8.80;5.27;;;32.90;54.80;;;;;;5052481;28;20609;-77
2023/06/29 11:01:56;;;;;;;5.80;5.00;;;32.40;55.30;;;;;;5017805;28;20591;-77
2023/06/29 11:04:23;;;;;;;7.13;5.10;;;32.10;55.90;;;;;;5033908;28;21000;-77
2023/06/29 11:06:50;;;;;;;5.77;4.50;;;31.80;56.50;;;;;;5038898;28;20678;-77
2023/06/29 11:09:16;;;;;;;7.20;4.63;;;31.60;57.20;;;;;;5034497;28;20634;-77
2023/06/29 11:11:47;;;;;;;6.93;5.30;;;31.30;57.60;;;;;;5052620;28;20571;-77
2023/06/29 11:14:16;;;;;;;9.37;5.60;;;31.10;58.20;;;;;;5018414;28;20642;-77
2023/06/29 11:16:42;;;;;;;6.87;5.80;;;31.00;58.80;;;;;;5052452;28;20560;-77
2023/06/29 11:19:08;;;;;;;6.40;5.33;;;30.90;59.20;;;;;;5035448;28;21138;-77
2023/06/29 11:21:34;;;;;;;8.43;5.20;;;30.90;59.50;;;;;;5052001;28;20517;-77
2023/06/29 11:24:00;;;;;;;7.23;5.17;;;30.80;59.80;;;;;;5018197;28;20619;-77
2023/06/29 11:26:26;;;;;;;8.33;5.33;;;30.90;60.40;;;;;;5052632;28;20174;-77
2023/06/29 11:28:53;;;;;;;13.50;5.10;;;30.90;60.90;;;;;;5052761;28;20614;-77
2023/06/29 11:31:22;;;;;;;6.40;5.50;;;31.00;61.50;;;;;;5033173;28;20231;-77
2023/06/29 11:33:51;;;;;;;7.73;4.83;;;31.10;62.00;;;;;;5034594;28;20615;-77
2023/06/29 11:36:33;;;;;;;7.80;5.63;;;31.20;62.10;;;;;;5034465;28;20582;-77
2023/06/29 11:39:09;;;;;;;11.77;6.53;;;31.30;62.40;;;;;;5034752;28;20595;-77
2023/06/29 11:41:40;;;;;;;10.10;7.57;;;31.50;62.90;;;;;;5022018;28;20602;-77
2023/06/29 11:44:06;;;;;;;8.20;5.90;;;31.70;63.10;;;;;;5034345;28;20631;-77
2023/06/29 11:46:33;;;;;;;8.00;6.00;;;32.00;63.30;;;;;;5034410;28;20599;-78
2023/06/29 11:49:00;;;;;;;6.73;5.03;;;32.20;63.50;;;;;;5052068;28;20620;-78
2023/06/29 11:51:28;;;;;;;6.67;4.80;;;32.40;63.20;;;;;;5033292;28;20572;-78
2023/06/29 11:53:56;;;;;;;8.97;4.87;;;32.70;63.10;;;;;;5017039;28;20641;-76
2023/06/29 11:56:48;;;;;;;7.33;5.10;;;32.90;62.50;;;;;;5034075;28;20585;-77
2023/06/29 11:59:17;;;;;;;7.33;5.30;;;32.90;61.80;;;;;;5030973;28;20596;-77
2023/06/29 12:01:47;;;;;;;9.80;5.60;;;33.00;61.00;;;;;;5033148;28;20597;-77
2023/06/29 12:04:13;;;;;;;10.10;6.20;;;33.00;60.40;;;;;;5016734;28;20600;-77
2023/06/29 12:06:58;;;;;;;6.70;4.47;;;32.90;60.40;;;;;;5052117;28;20920;-77
2023/06/29 12:09:31;;;;;;;5.90;4.80;;;32.80;60.40;;;;;;5033782;28;20631;-76
2023/06/29 12:11:59;;;;;;;6.97;5.10;;;32.70;60.00;;;;;;5051115;28;21000;-77
2023/06/29 12:14:29;;;;;;;9.77;4.97;;;32.50;59.90;;;;;;5051385;28;20579;-76
2023/06/29 12:16:57;;;;;;;7.27;4.67;;;32.40;59.70;;;;;;5033366;28;20619;-76
2023/06/29 12:19:27;;;;;;;7.27;4.83;;;32.10;59.80;;;;;;5037199;28;20820;-76
2023/06/29 12:21:53;;;;;;;6.87;4.93;;;32.00;60.40;;;;;;5032845;28;20625;-76
2023/06/29 12:24:19;;;;;;;5.67;4.20;;;31.90;60.20;;;;;;5013580;28;20601;-77
2023/06/29 12:26:45;;;;;;;6.70;4.47;;;31.80;60.00;;;;;;5026029;28;20177;-76
2023/06/29 12:29:10;;;;;;;5.27;3.90;;;31.60;59.60;;;;;;5007706;28;20197;-76
2023/06/29 12:31:36;;;;;;;16.70;5.83;;;31.50;59.70;;;;;;5024448;28;20546;-76
2023/06/29 12:34:02;;;;;;;16.63;4.07;;;31.40;59.90;;;;;;5051557;28;20235;-77
2023/06/29 12:36:28;;;;;;;4.63;4.13;;;31.30;60.10;;;;;;5033345;28;20599;-77
2023/06/29 12:38:54;;;;;;;5.17;3.93;;;31.20;60.20;;;;;;5032926;28;20173;-76
2023/06/29 12:41:20;;;;;;;4.57;3.80;;;31.10;60.30;;;;;;5050314;28;20602;-77
2023/06/29 12:43:47;;;;;;;6.53;4.27;;;31.00;60.40;;;;;;5032690;28;20228;-76
2023/06/29 12:46:13;;;;;;;6.50;4.60;;;30.80;60.40;;;;;;5033103;28;20178;-77